sensor_id;sensor_type;location;lat;lon;timestamp;pressure;altitude;pressure_sealevel;temperature;humidity
62694;BME280;48759;52.544;13.418;2023-04-19T00:00:13;102154.00;;;2.41;100.00
62694;BME280;48759;52.544;13.418;2023-04-19T00:02:40;102150.94;;;2.45;100.00
62694;BME280;48759;52.544;13.418;2023-04-19T00:05:08;102147.88;;;2.50;100.00
62694;BME280;48759;52.544;13.418;2023-04-19T00:07:36;102158.63;;;2.51;100.00
62694;BME280;48759;52.544;13.418;2023-04-19T00:10:04;102146.88;;;2.51;100.00
62694;BME280;48759;52.544;13.418;2023-04-19T00:12:32;102154.66;;;2.55;100.00
62694;BME280;48759;52.544;13.418;2023-04-19T00:14:59;102153.06;;;2.53;100.00
62694;BME280;48759;52.544;13.418;2023-04-19T00:17:26;102144.91;;;2.53;100.00
62694;BME280;48759;52.544;13.418;2023-04-19T00:19:53;102137.75;;;2.52;100.00
62694;BME280;48759;52.544;13.418;2023-04-19T00:22:20;102143.03;;;2.42;100.00
62694;BME280;48759;52.544;13.418;2023-04-19T00:24:47;102139.22;;;2.45;100.00
62694;BME280;48759;52.544;13.418;2023-04-19T00:27:14;102132.53;;;2.49;100.00
62694;BME280;48759;52.544;13.418;2023-04-19T00:29:46;102133.13;;;2.41;100.00
62694;BME280;48759;52.544;13.418;2023-04-19T00:32:13;102134.97;;;2.41;100.00
62694;BME280;48759;52.544;13.418;2023-04-19T00:34:41;102137.19;;;2.36;100.00
62694;BME280;48759;52.544;13.418;2023-04-19T00:37:08;102142.41;;;2.39;100.00
62694;BME280;48759;52.544;13.418;2023-04-19T00:39:35;102149.09;;;2.46;100.00
62694;BME280;48759;52.544;13.418;2023-04-19T00:42:02;102139.81;;;2.37;100.00
62694;BME280;48759;52.544;13.418;2023-04-19T00:44:29;102140.19;;;2.44;100.00
62694;BME280;48759;52.544;13.418;2023-04-19T00:46:59;102140.78;;;2.36;100.00
62694;BME280;48759;52.544;13.418;2023-04-19T00:49:26;102137.16;;;2.24;100.00
62694;BME280;48759;52.544;13.418;2023-04-19T00:51:57;102132.00;;;2.32;100.00
62694;BME280;48759;52.544;13.418;2023-04-19T00:54:24;102138.13;;;2.23;100.00
62694;BME280;48759;52.544;13.418;2023-04-19T00:56:52;102138.13;;;2.23;100.00
62694;BME280;48759;52.544;13.418;2023-04-19T00:59:19;102133.19;;;2.17;100.00
62694;BME280;48759;52.544;13.418;2023-04-19T01:01:46;102129.69;;;2.04;100.00
62694;BME280;48759;52.544;13.418;2023-04-19T01:04:14;102131.75;;;2.01;100.00
62694;BME280;48759;52.544;13.418;2023-04-19T01:06:44;102126.56;;;1.98;100.00
62694;BME280;48759;52.544;13.418;2023-04-19T01:09:12;102136.56;;;1.97;100.00
62694;BME280;48759;52.544;13.418;2023-04-19T01:11:40;102134.53;;;1.88;100.00
62694;BME280;48759;52.544;13.418;2023-04-19T01:14:07;102129.75;;;1.68;100.00
62694;BME280;48759;52.544;13.418;2023-04-19T01:16:35;102129.56;;;1.58;100.00
62694;BME280;48759;52.544;13.418;2023-04-19T01:19:03;102135.19;;;1.55;100.00
62694;BME280;48759;52.544;13.418;2023-04-19T01:21:31;102134.56;;;1.51;100.00
62694;BME280;48759;52.544;13.418;2023-04-19T01:23:59;102121.78;;;1.41;100.00
62694;BME280;48759;52.544;13.418;2023-04-19T01:26:26;102125.84;;;1.35;100.00
62694;BME280;48759;52.544;13.418;2023-04-19T01:28:53;102127.47;;;1.25;100.00
62694;BME280;48759;52.544;13.418;2023-04-19T01:31:21;102123.53;;;1.29;100.00
62694;BME280;48759;52.544;13.418;2023-04-19T01:33:48;102119.34;;;1.25;100.00
62694;BME280;48759;52.544;13.418;2023-04-19T01:36:15;102125.78;;;1.11;100.00
62694;BME280;48759;52.544;13.418;2023-04-19T01:38:42;102117.28;;;1.16;100.00
62694;BME280;48759;52.544;13.418;2023-04-19T01:41:10;102125.09;;;1.08;100.00
62694;BME280;48759;52.544;13.418;2023-04-19T01:43:37;102116.44;;;0.90;100.00
62694;BME280;48759;52.544;13.418;2023-04-19T01:46:04;102119.81;;;0.94;100.00
62694;BME280;48759;52.544;13.418;2023-04-19T01:48:31;102113.72;;;0.90;100.00
62694;BME280;48759;52.544;13.418;2023-04-19T01:50:58;102106.25;;;0.81;100.00
62694;BME280;48759;52.544;13.418;2023-04-19T01:53:25;102108.09;;;0.81;100.00
62694;BME280;48759;52.544;13.418;2023-04-19T01:55:52;102110.03;;;0.78;100.00
62694;BME280;48759;52.544;13.418;2023-04-19T01:58:20;102108.50;;;0.74;100.00
62694;BME280;48759;52.544;13.418;2023-04-19T02:00:47;102109.50;;;0.73;100.00
62694;BME280;48759;52.544;13.418;2023-04-19T02:03:16;102105.72;;;0.63;100.00
62694;BME280;48759;52.544;13.418;2023-04-19T02:05:43;102112.88;;;0.64;100.00
62694;BME280;48759;52.544;13.418;2023-04-19T02:08:09;102105.59;;;0.65;100.00
62694;BME280;48759;52.544;13.418;2023-04-19T02:10:36;102109.28;;;0.64;100.00
62694;BME280;48759;52.544;13.418;2023-04-19T02:13:04;102101.72;;;0.56;100.00
62694;BME280;48759;52.544;13.418;2023-04-19T02:15:35;102100.16;;;0.52;100.00
62694;BME280;48759;52.544;13.418;2023-04-19T02:18:02;102108.72;;;0.46;100.00
62694;BME280;48759;52.544;13.418;2023-04-19T02:20:31;102093.25;;;0.48;100.00
62694;BME280;48759;52.544;13.418;2023-04-19T02:22:57;102104.09;;;0.48;100.00
62694;BME280;48759;52.544;13.418;2023-04-19T02:25:25;102095.63;;;0.40;100.00
62694;BME280;48759;52.544;13.418;2023-04-19T02:27:52;102099.75;;;0.33;100.00
62694;BME280;48759;52.544;13.418;2023-04-19T02:30:19;102091.50;;;0.34;100.00
62694;BME280;48759;52.544;13.418;2023-04-19T02:32:48;102090.06;;;0.29;100.00
62694;BME280;48759;52.544;13.418;2023-04-19T02:35:15;102092.59;;;0.32;100.00
62694;BME280;48759;52.544;13.418;2023-04-19T02:37:43;102087.59;;;0.26;100.00
62694;BME280;48759;52.544;13.418;2023-04-19T02:40:10;102083.16;;;0.25;100.00
62694;BME280;48759;52.544;13.418;2023-04-19T02:42:37;102080.09;;;0.17;100.00
62694;BME280;48759;52.544;13.418;2023-04-19T02:45:04;102086.69;;;0.13;100.00
62694;BME280;48759;52.544;13.418;2023-04-19T02:47:31;102078.66;;;0.11;100.00
62694;BME280;48759;52.544;13.418;2023-04-19T02:50:00;102080.41;;;-0.01;100.00
62694;BME280;48759;52.544;13.418;2023-04-19T02:52:27;102078.47;;;0.01;100.00
62694;BME280;48759;52.544;13.418;2023-04-19T02:54:54;102073.25;;;-0.02;100.00
62694;BME280;48759;52.544;13.418;2023-04-19T02:57:20;102067.50;;;-0.10;100.00
62694;BME280;48759;52.544;13.418;2023-04-19T02:59:47;102068.25;;;-0.08;100.00
62694;BME280;48759;52.544;13.418;2023-04-19T03:02:14;102073.66;;;-0.08;100.00
62694;BME280;48759;52.544;13.418;2023-04-19T03:04:43;102054.31;;;-0.02;100.00
62694;BME280;48759;52.544;13.418;2023-04-19T03:07:12;102055.28;;;-0.03;100.00
62694;BME280;48759;52.544;13.418;2023-04-19T03:09:40;102062.84;;;-0.08;100.00
62694;BME280;48759;52.544;13.418;2023-04-19T03:12:07;102059.38;;;-0.10;100.00
62694;BME280;48759;52.544;13.418;2023-04-19T03:14:34;102058.31;;;-0.07;100.00
62694;BME280;48759;52.544;13.418;2023-04-19T03:17:01;102054.50;;;-0.05;100.00
62694;BME280;48759;52.544;13.418;2023-04-19T03:19:29;102051.06;;;-0.07;100.00
62694;BME280;48759;52.544;13.418;2023-04-19T03:21:56;102049.75;;;-0.14;100.00
62694;BME280;48759;52.544;13.418;2023-04-19T03:24:29;102046.47;;;-0.19;100.00
62694;BME280;48759;52.544;13.418;2023-04-19T03:26:56;102049.59;;;-0.25;100.00
62694;BME280;48759;52.544;13.418;2023-04-19T03:29:23;102040.94;;;-0.30;100.00
62694;BME280;48759;52.544;13.418;2023-04-19T03:31:50;102035.53;;;-0.30;100.00
62694;BME280;48759;52.544;13.418;2023-04-19T03:34:17;102041.13;;;-0.33;100.00
62694;BME280;48759;52.544;13.418;2023-04-19T03:36:44;102038.53;;;-0.34;100.00
62694;BME280;48759;52.544;13.418;2023-04-19T03:39:13;102029.66;;;-0.37;100.00
62694;BME280;48759;52.544;13.418;2023-04-19T03:41:41;102027.16;;;-0.40;100.00
62694;BME280;48759;52.544;13.418;2023-04-19T03:44:10;102033.09;;;-0.47;100.00
62694;BME280;48759;52.544;13.418;2023-04-19T03:46:37;102030.56;;;-0.50;100.00
62694;BME280;48759;52.544;13.418;2023-04-19T03:49:04;102028.44;;;-0.45;100.00
62694;BME280;48759;52.544;13.418;2023-04-19T03:51:35;102029.59;;;-0.49;100.00
62694;BME280;48759;52.544;13.418;2023-04-19T03:54:02;102022.47;;;-0.50;100.00
62694;BME280;48759;52.544;13.418;2023-04-19T03:56:30;102014.44;;;-0.52;100.00
62694;BME280;48759;52.544;13.418;2023-04-19T03:58:58;102022.69;;;-0.53;100.00
62694;BME280;48759;52.544;13.418;2023-04-19T04:01:25;102018.78;;;-0.49;100.00
62694;BME280;48759;52.544;13.418;2023-04-19T04:03:53;102013.81;;;-0.55;100.00
62694;BME280;48759;52.544;13.418;2023-04-19T04:06:20;102011.66;;;-0.50;100.00
62694;BME280;48759;52.544;13.418;2023-04-19T04:08:48;102010.13;;;-0.54;100.00
62694;BME280;48759;52.544;13.418;2023-04-19T04:11:15;102009.38;;;-0.56;100.00
62694;BME280;48759;52.544;13.418;2023-04-19T04:13:44;102016.19;;;-0.51;100.00
62694;BME280;48759;52.544;13.418;2023-04-19T04:16:16;102013.81;;;-0.55;100.00
62694;BME280;48759;52.544;13.418;2023-04-19T04:18:43;102009.91;;;-0.51;100.00
62694;BME280;48759;52.544;13.418;2023-04-19T04:21:10;102007.19;;;-0.51;100.00
62694;BME280;48759;52.544;13.418;2023-04-19T04:23:38;102004.72;;;-0.54;100.00
62694;BME280;48759;52.544;13.418;2023-04-19T04:26:06;102006.47;;;-0.53;100.00
62694;BME280;48759;52.544;13.418;2023-04-19T04:28:34;102008.41;;;-0.55;100.00
62694;BME280;48759;52.544;13.418;2023-04-19T04:31:01;102004.31;;;-0.48;100.00
62694;BME280;48759;52.544;13.418;2023-04-19T04:33:29;102013.47;;;-0.51;100.00
62694;BME280;48759;52.544;13.418;2023-04-19T04:35:56;101998.69;;;-0.45;100.00
62694;BME280;48759;52.544;13.418;2023-04-19T04:38:28;102004.31;;;-0.48;100.00
62694;BME280;48759;52.544;13.418;2023-04-19T04:41:00;101989.81;;;-0.47;100.00
62694;BME280;48759;52.544;13.418;2023-04-19T04:43:31;101997.06;;;-0.48;100.00
62694;BME280;48759;52.544;13.418;2023-04-19T04:46:00;101998.47;;;-0.42;100.00
62694;BME280;48759;52.544;13.418;2023-04-19T04:48:29;101992.53;;;-0.47;100.00
62694;BME280;48759;52.544;13.418;2023-04-19T04:50:56;101994.16;;;-0.45;100.00
62694;BME280;48759;52.544;13.418;2023-04-19T04:53:24;101997.22;;;-0.37;100.00
62694;BME280;48759;52.544;13.418;2023-04-19T04:55:53;101995.47;;;-0.38;100.00
62694;BME280;48759;52.544;13.418;2023-04-19T04:58:19;101988.09;;;-0.36;100.00
62694;BME280;48759;52.544;13.418;2023-04-19T05:00:49;101985.28;;;-0.34;100.00
62694;BME280;48759;52.544;13.418;2023-04-19T05:03:17;101993.75;;;-0.26;100.00
62694;BME280;48759;52.544;13.418;2023-04-19T05:05:45;101996.03;;;-0.20;100.00
62694;BME280;48759;52.544;13.418;2023-04-19T05:08:12;101985.09;;;-0.18;100.00
62694;BME280;48759;52.544;13.418;2023-04-19T05:10:42;101992.59;;;-0.22;100.00
62694;BME280;48759;52.544;13.418;2023-04-19T05:13:09;101982.19;;;-0.03;100.00
62694;BME280;48759;52.544;13.418;2023-04-19T05:15:36;101979.50;;;-0.03;100.00
62694;BME280;48759;52.544;13.418;2023-04-19T05:18:04;101989.88;;;0.03;100.00
62694;BME280;48759;52.544;13.418;2023-04-19T05:20:31;101977.69;;;0.11;100.00
62694;BME280;48759;52.544;13.418;2023-04-19T05:23:00;101979.50;;;0.23;100.00
62694;BME280;48759;52.544;13.418;2023-04-19T05:25:28;101975.94;;;0.22;100.00
62694;BME280;48759;52.544;13.418;2023-04-19T05:27:54;101975.16;;;0.20;100.00
62694;BME280;48759;52.544;13.418;2023-04-19T05:30:22;101966.28;;;0.31;100.00
62694;BME280;48759;52.544;13.418;2023-04-19T05:32:49;101971.03;;;0.27;100.00
62694;BME280;48759;52.544;13.418;2023-04-19T05:35:17;101971.72;;;0.31;100.00
62694;BME280;48759;52.544;13.418;2023-04-19T05:37:43;101968.56;;;0.37;100.00
62694;BME280;48759;52.544;13.418;2023-04-19T05:40:12;101962.28;;;0.49;100.00
62694;BME280;48759;52.544;13.418;2023-04-19T05:42:39;101968.88;;;0.45;100.00
62694;BME280;48759;52.544;13.418;2023-04-19T05:45:06;101949.16;;;0.43;100.00
62694;BME280;48759;52.544;13.418;2023-04-19T05:47:33;101969.94;;;0.55;100.00
62694;BME280;48759;52.544;13.418;2023-04-19T05:50:00;101959.94;;;0.68;100.00
62694;BME280;48759;52.544;13.418;2023-04-19T05:52:27;101954.63;;;0.67;100.00
62694;BME280;48759;52.544;13.418;2023-04-19T05:54:54;101959.78;;;0.83;100.00
62694;BME280;48759;52.544;13.418;2023-04-19T05:57:22;101969.22;;;0.90;100.00
62694;BME280;48759;52.544;13.418;2023-04-19T05:59:48;101963.38;;;0.96;100.00
62694;BME280;48759;52.544;13.418;2023-04-19T06:02:15;101975.88;;;1.09;100.00
62694;BME280;48759;52.544;13.418;2023-04-19T06:04:42;101966.59;;;1.01;100.00
62694;BME280;48759;52.544;13.418;2023-04-19T06:07:08;101960.03;;;1.16;100.00
62694;BME280;48759;52.544;13.418;2023-04-19T06:09:35;101953.91;;;1.25;100.00
62694;BME280;48759;52.544;13.418;2023-04-19T06:12:02;101968.22;;;1.27;100.00
62694;BME280;48759;52.544;13.418;2023-04-19T06:14:32;101958.38;;;1.26;100.00
62694;BME280;48759;52.544;13.418;2023-04-19T06:16:59;101954.97;;;1.35;100.00
62694;BME280;48759;52.544;13.418;2023-04-19T06:19:26;101959.91;;;1.41;100.00
62694;BME280;48759;52.544;13.418;2023-04-19T06:21:52;101957.03;;;1.67;100.00
62694;BME280;48759;52.544;13.418;2023-04-19T06:24:19;101974.78;;;1.60;100.00
62694;BME280;48759;52.544;13.418;2023-04-19T06:26:46;101956.53;;;1.62;100.00
62694;BME280;48759;52.544;13.418;2023-04-19T06:29:14;101962.22;;;1.70;100.00
62694;BME280;48759;52.544;13.418;2023-04-19T06:31:42;101950.91;;;1.87;100.00
62694;BME280;48759;52.544;13.418;2023-04-19T06:34:11;101967.25;;;1.98;100.00
62694;BME280;48759;52.544;13.418;2023-04-19T06:36:37;101950.59;;;2.03;100.00
62694;BME280;48759;52.544;13.418;2023-04-19T06:39:04;101949.63;;;2.15;100.00
62694;BME280;48759;52.544;13.418;2023-04-19T06:41:31;101943.94;;;2.18;100.00
62694;BME280;48759;52.544;13.418;2023-04-19T06:43:57;101948.41;;;2.30;100.00
62694;BME280;48759;52.544;13.418;2023-04-19T06:46:24;101942.84;;;2.43;100.00
62694;BME280;48759;52.544;13.418;2023-04-19T06:48:56;101933.69;;;2.55;100.00
62694;BME280;48759;52.544;13.418;2023-04-19T06:51:23;101938.75;;;2.59;100.00
62694;BME280;48759;52.544;13.418;2023-04-19T06:53:50;101937.38;;;2.76;100.00
62694;BME280;48759;52.544;13.418;2023-04-19T06:56:17;101928.59;;;2.84;100.00
62694;BME280;48759;52.544;13.418;2023-04-19T06:58:44;101925.13;;;2.82;100.00
62694;BME280;48759;52.544;13.418;2023-04-19T07:01:10;101917.06;;;2.91;100.00
62694;BME280;48759;52.544;13.418;2023-04-19T07:03:37;101926.78;;;3.05;100.00
62694;BME280;48759;52.544;13.418;2023-04-19T07:06:06;101926.06;;;3.03;100.00
62694;BME280;48759;52.544;13.418;2023-04-19T07:08:33;101917.09;;;3.23;100.00
62694;BME280;48759;52.544;13.418;2023-04-19T07:11:00;101913.56;;;3.43;100.00
62694;BME280;48759;52.544;13.418;2023-04-19T07:13:27;101913.53;;;3.55;100.00
62694;BME280;48759;52.544;13.418;2023-04-19T07:15:54;101905.06;;;3.58;100.00
62694;BME280;48759;52.544;13.418;2023-04-19T07:18:20;101902.72;;;3.64;100.00
62694;BME280;48759;52.544;13.418;2023-04-19T07:20:48;101902.38;;;3.78;100.00
62694;BME280;48759;52.544;13.418;2023-04-19T07:23:16;101911.78;;;3.74;100.00
62694;BME280;48759;52.544;13.418;2023-04-19T07:25:43;101899.72;;;3.88;100.00
62694;BME280;48759;52.544;13.418;2023-04-19T07:28:11;101917.94;;;3.97;100.00
62694;BME280;48759;52.544;13.418;2023-04-19T07:30:38;101892.31;;;4.00;100.00
62694;BME280;48759;52.544;13.418;2023-04-19T07:33:05;101896.00;;;4.19;100.00
62694;BME280;48759;52.544;13.418;2023-04-19T07:35:33;101887.69;;;4.21;100.00
62694;BME280;48759;52.544;13.418;2023-04-19T07:38:00;101887.41;;;4.24;100.00
62694;BME280;48759;52.544;13.418;2023-04-19T07:40:28;101882.28;;;4.31;100.00
62694;BME280;48759;52.544;13.418;2023-04-19T07:42:55;101899.25;;;4.44;100.00
62694;BME280;48759;52.544;13.418;2023-04-19T07:45:22;101877.13;;;4.37;100.00
62694;BME280;48759;52.544;13.418;2023-04-19T07:47:49;101870.50;;;4.30;100.00
62694;BME280;48759;52.544;13.418;2023-04-19T07:50:16;101865.13;;;4.49;100.00
62694;BME280;48759;52.544;13.418;2023-04-19T07:52:43;101874.94;;;4.71;100.00
62694;BME280;48759;52.544;13.418;2023-04-19T07:55:10;101854.31;;;4.88;100.00
62694;BME280;48759;52.544;13.418;2023-04-19T07:57:38;101867.63;;;4.91;100.00
62694;BME280;48759;52.544;13.418;2023-04-19T08:00:05;101863.38;;;4.98;100.00
62694;BME280;48759;52.544;13.418;2023-04-19T08:02:34;101869.00;;;5.25;100.00
62694;BME280;48759;52.544;13.418;2023-04-19T08:05:01;101863.25;;;5.28;100.00
62694;BME280;48759;52.544;13.418;2023-04-19T08:07:29;101854.06;;;5.29;100.00
62694;BME280;48759;52.544;13.418;2023-04-19T08:09:57;101844.44;;;5.25;100.00
62694;BME280;48759;52.544;13.418;2023-04-19T08:12:25;101846.56;;;5.31;100.00
62694;BME280;48759;52.544;13.418;2023-04-19T08:14:53;101832.50;;;5.36;100.00
62694;BME280;48759;52.544;13.418;2023-04-19T08:17:19;101834.25;;;5.37;100.00
62694;BME280;48759;52.544;13.418;2023-04-19T08:19:48;101839.38;;;5.50;100.00
62694;BME280;48759;52.544;13.418;2023-04-19T08:22:15;101847.97;;;5.64;100.00
62694;BME280;48759;52.544;13.418;2023-04-19T08:24:42;101842.25;;;5.58;100.00
62694;BME280;48759;52.544;13.418;2023-04-19T08:27:10;101839.66;;;5.66;100.00
62694;BME280;48759;52.544;13.418;2023-04-19T08:29:38;101838.56;;;5.86;100.00
62694;BME280;48759;52.544;13.418;2023-04-19T08:32:07;101834.09;;;5.85;100.00
62694;BME280;48759;52.544;13.418;2023-04-19T08:34:34;101829.75;;;6.02;100.00
62694;BME280;48759;52.544;13.418;2023-04-19T08:37:12;101847.53;;;6.15;100.00
62694;BME280;48759;52.544;13.418;2023-04-19T08:39:38;101839.13;;;5.99;100.00
62694;BME280;48759;52.544;13.418;2023-04-19T08:42:08;101836.28;;;6.19;100.00
62694;BME280;48759;52.544;13.418;2023-04-19T08:44:36;101840.47;;;6.23;100.00
62694;BME280;48759;52.544;13.418;2023-04-19T08:47:04;101822.19;;;6.23;100.00
62694;BME280;48759;52.544;13.418;2023-04-19T08:49:35;101843.91;;;6.52;100.00
62694;BME280;48759;52.544;13.418;2023-04-19T08:52:02;101843.59;;;6.82;100.00
62694;BME280;48759;52.544;13.418;2023-04-19T08:54:30;101823.81;;;6.88;100.00
62694;BME280;48759;52.544;13.418;2023-04-19T08:56:58;101822.53;;;7.36;100.00
62694;BME280;48759;52.544;13.418;2023-04-19T08:59:26;101810.88;;;7.34;100.00
62694;BME280;48759;52.544;13.418;2023-04-19T09:01:53;101808.03;;;7.18;100.00
62694;BME280;48759;52.544;13.418;2023-04-19T09:04:20;101807.94;;;7.10;100.00
62694;BME280;48759;52.544;13.418;2023-04-19T09:06:49;101793.22;;;7.54;100.00
62694;BME280;48759;52.544;13.418;2023-04-19T09:09:18;101804.72;;;7.84;99.52
62694;BME280;48759;52.544;13.418;2023-04-19T09:11:45;101800.38;;;8.07;94.98
62694;BME280;48759;52.544;13.418;2023-04-19T09:14:13;101785.69;;;7.82;92.56
62694;BME280;48759;52.544;13.418;2023-04-19T09:16:41;101793.63;;;7.16;91.96
62694;BME280;48759;52.544;13.418;2023-04-19T09:19:08;101792.38;;;7.10;94.60
62694;BME280;48759;52.544;13.418;2023-04-19T09:21:37;101830.38;;;6.96;96.63
62694;BME280;48759;52.544;13.418;2023-04-19T09:24:08;101777.25;;;7.24;97.27
62694;BME280;48759;52.544;13.418;2023-04-19T09:26:35;101779.91;;;7.34;95.39
62694;BME280;48759;52.544;13.418;2023-04-19T09:29:03;101780.19;;;7.48;92.55
62694;BME280;48759;52.544;13.418;2023-04-19T09:31:33;101776.34;;;7.67;92.97
62694;BME280;48759;52.544;13.418;2023-04-19T09:34:11;101770.31;;;7.55;91.09
62694;BME280;48759;52.544;13.418;2023-04-19T09:36:38;101761.47;;;7.44;94.00
62694;BME280;48759;52.544;13.418;2023-04-19T09:39:05;101767.56;;;7.55;94.48
62694;BME280;48759;52.544;13.418;2023-04-19T09:41:34;101756.59;;;7.29;93.43
62694;BME280;48759;52.544;13.418;2023-04-19T09:44:08;101752.03;;;7.38;93.86
62694;BME280;48759;52.544;13.418;2023-04-19T09:46:37;101754.22;;;7.60;92.19
62694;BME280;48759;52.544;13.418;2023-04-19T09:49:18;101768.06;;;7.85;90.78
62694;BME280;48759;52.544;13.418;2023-04-19T09:51:46;101744.19;;;7.69;92.49
62694;BME280;48759;52.544;13.418;2023-04-19T09:54:15;101753.69;;;7.31;91.48
62694;BME280;48759;52.544;13.418;2023-04-19T09:56:43;101754.13;;;7.44;92.48
62694;BME280;48759;52.544;13.418;2023-04-19T09:59:11;101750.97;;;7.91;90.31
62694;BME280;48759;52.544;13.418;2023-04-19T10:01:39;101737.00;;;8.10;89.31
62694;BME280;48759;52.544;13.418;2023-04-19T10:04:09;101743.47;;;8.01;88.47
62694;BME280;48759;52.544;13.418;2023-04-19T10:06:37;101732.09;;;8.22;88.08
62694;BME280;48759;52.544;13.418;2023-04-19T10:09:05;101732.00;;;8.48;80.12
62694;BME280;48759;52.544;13.418;2023-04-19T10:11:34;101737.19;;;8.67;77.72
62694;BME280;48759;52.544;13.418;2023-04-19T10:14:05;101727.09;;;8.67;77.10
62694;BME280;48759;52.544;13.418;2023-04-19T10:16:36;101727.44;;;8.80;76.31
62694;BME280;48759;52.544;13.418;2023-04-19T10:19:07;101712.66;;;8.65;75.03
62694;BME280;48759;52.544;13.418;2023-04-19T10:21:35;101721.84;;;8.32;77.70
62694;BME280;48759;52.544;13.418;2023-04-19T10:24:05;101733.78;;;8.15;81.41
62694;BME280;48759;52.544;13.418;2023-04-19T10:29:54;101716.03;;;8.27;82.89
62694;BME280;48759;52.544;13.418;2023-04-19T10:32:21;101712.59;;;7.91;85.54
62694;BME280;48759;52.544;13.418;2023-04-19T10:34:51;101729.41;;;7.96;84.59
62694;BME280;48759;52.544;13.418;2023-04-19T10:37:21;101718.81;;;8.01;84.44
62694;BME280;48759;52.544;13.418;2023-04-19T10:39:49;101732.31;;;8.28;85.56
62694;BME280;48759;52.544;13.418;2023-04-19T10:42:16;101730.91;;;8.24;82.27
62694;BME280;48759;52.544;13.418;2023-04-19T10:47:47;101715.84;;;8.36;80.82
62694;BME280;48759;52.544;13.418;2023-04-19T10:50:15;101707.63;;;8.44;80.53
62694;BME280;48759;52.544;13.418;2023-04-19T10:52:42;101705.97;;;8.60;80.99
62694;BME280;48759;52.544;13.418;2023-04-19T10:55:14;101712.25;;;8.28;81.45
62694;BME280;48759;52.544;13.418;2023-04-19T10:58:00;101711.09;;;8.63;83.18
62694;BME280;48759;52.544;13.418;2023-04-19T11:00:27;101711.41;;;8.27;83.72
62694;BME280;48759;52.544;13.418;2023-04-19T11:02:57;101699.81;;;8.66;83.01
62694;BME280;48759;52.544;13.418;2023-04-19T11:05:25;101704.94;;;8.93;81.40
62694;BME280;48759;52.544;13.418;2023-04-19T11:07:57;101696.00;;;9.07;79.16
62694;BME280;48759;52.544;13.418;2023-04-19T11:10:28;101712.81;;;9.53;77.64
62694;BME280;48759;52.544;13.418;2023-04-19T11:12:59;101699.78;;;9.23;73.62
62694;BME280;48759;52.544;13.418;2023-04-19T11:15:26;101701.50;;;9.07;76.73
62694;BME280;48759;52.544;13.418;2023-04-19T11:17:52;101688.78;;;9.39;75.96
62694;BME280;48759;52.544;13.418;2023-04-19T11:20:23;101688.50;;;9.73;69.50
62694;BME280;48759;52.544;13.418;2023-04-19T11:22:50;101691.66;;;9.62;68.49
62694;BME280;48759;52.544;13.418;2023-04-19T11:25:19;101683.25;;;9.94;67.69
62694;BME280;48759;52.544;13.418;2023-04-19T11:27:47;101694.59;;;10.30;66.60
62694;BME280;48759;52.544;13.418;2023-04-19T11:30:16;101683.47;;;9.92;62.51
62694;BME280;48759;52.544;13.418;2023-04-19T11:32:45;101677.53;;;10.04;63.38
62694;BME280;48759;52.544;13.418;2023-04-19T11:35:12;101657.41;;;10.34;61.52
62694;BME280;48759;52.544;13.418;2023-04-19T11:37:41;101664.72;;;10.19;60.01
62694;BME280;48759;52.544;13.418;2023-04-19T11:40:09;101668.41;;;10.34;60.00
62694;BME280;48759;52.544;13.418;2023-04-19T11:42:40;101681.94;;;10.44;59.55
62694;BME280;48759;52.544;13.418;2023-04-19T11:45:08;101664.81;;;10.03;61.14
62694;BME280;48759;52.544;13.418;2023-04-19T11:47:46;101670.22;;;9.33;58.93
62694;BME280;48759;52.544;13.418;2023-04-19T11:50:31;101670.75;;;9.28;60.72
62694;BME280;48759;52.544;13.418;2023-04-19T11:53:09;101662.25;;;9.62;61.07
62694;BME280;48759;52.544;13.418;2023-04-19T11:55:36;101680.09;;;9.74;60.71
62694;BME280;48759;52.544;13.418;2023-04-19T11:58:05;101657.19;;;9.43;63.65
62694;BME280;48759;52.544;13.418;2023-04-19T12:00:34;101653.91;;;9.39;66.33
62694;BME280;48759;52.544;13.418;2023-04-19T12:03:01;101652.66;;;9.58;65.95
62694;BME280;48759;52.544;13.418;2023-04-19T12:05:29;101655.66;;;9.79;58.53
62694;BME280;48759;52.544;13.418;2023-04-19T12:08:05;101632.09;;;9.38;57.24
62694;BME280;48759;52.544;13.418;2023-04-19T12:10:34;101640.22;;;9.70;56.77
62694;BME280;48759;52.544;13.418;2023-04-19T12:13:15;101645.22;;;9.75;59.04
62694;BME280;48759;52.544;13.418;2023-04-19T12:15:42;101637.94;;;9.35;60.95
62694;BME280;48759;52.544;13.418;2023-04-19T12:18:09;101634.19;;;9.28;62.36
62694;BME280;48759;52.544;13.418;2023-04-19T12:20:36;101634.94;;;9.05;63.55
62694;BME280;48759;52.544;13.418;2023-04-19T12:23:04;101629.13;;;9.55;64.28
62694;BME280;48759;52.544;13.418;2023-04-19T12:25:35;101625.34;;;9.56;61.85
62694;BME280;48759;52.544;13.418;2023-04-19T12:28:03;101630.06;;;9.79;61.92
62694;BME280;48759;52.544;13.418;2023-04-19T12:30:32;101615.63;;;9.38;63.09
62694;BME280;48759;52.544;13.418;2023-04-19T12:32:59;101610.56;;;9.02;64.89
62694;BME280;48759;52.544;13.418;2023-04-19T12:35:27;101617.22;;;9.08;66.81
62694;BME280;48759;52.544;13.418;2023-04-19T12:37:56;101618.44;;;9.13;65.50
62694;BME280;48759;52.544;13.418;2023-04-19T12:40:26;101609.56;;;8.79;69.38
62694;BME280;48759;52.544;13.418;2023-04-19T12:42:53;101616.38;;;8.99;71.56
62694;BME280;48759;52.544;13.418;2023-04-19T12:45:20;101611.72;;;9.08;69.67
62694;BME280;48759;52.544;13.418;2023-04-19T12:47:47;101599.88;;;9.15;69.94
62694;BME280;48759;52.544;13.418;2023-04-19T12:50:15;101606.50;;;9.53;69.28